Time;durP1;ratioP1;P1;durP2;ratioP2;P2;SDS_P1;SDS_P2;PMS_P1;PMS_P2;Temp;Humidity;BMP_temperature;BMP_pressure;BME280_temperature;BME280_humidity;BME280_pressure;Samples;Min_cycle;Max_cycle;Signal;HPM_P1;HPM_P2
2023/08/16 00:00:19;;;;;;;8.50;6.30;;;;;;;19.91;96.89;98145.87;106747;1279;22523;-78
2023/08/16 00:03:08;;;;;;;9.50;6.60;;;;;;;19.84;97.02;98149.85;106697;1280;22534;-77
2023/08/16 00:05:36;;;;;;;9.60;6.70;;;;;;;19.81;96.77;98154.45;106673;1279;22486;-78
2023/08/16 00:08:04;;;;;;;9.20;6.60;;;;;;;19.84;96.83;98154.13;106679;1279;22601;-78
2023/08/16 00:10:33;;;;;;;9.50;7.10;;;;;;;19.92;96.50;98160.58;106717;1279;22575;-78
2023/08/16 00:13:01;;;;;;;10.20;6.80;;;;;;;19.93;96.19;98162.16;106676;1279;22945;-78
2023/08/16 00:15:29;;;;;;;11.10;7.10;;;;;;;19.93;96.24;98159.27;106709;1279;22679;-78
2023/08/16 00:17:57;;;;;;;9.00;7.60;;;;;;;19.90;96.58;98165.70;106739;1279;22564;-78
2023/08/16 00:20:27;;;;;;;7.50;6.70;;;;;;;19.85;96.76;98167.75;106691;1279;25503;-78
2023/08/16 00:22:55;;;;;;;8.50;6.90;;;;;;;19.82;96.22;98163.70;106715;1262;22825;-79
2023/08/16 00:25:23;;;;;;;10.50;6.50;;;;;;;19.80;96.60;98164.50;106727;1279;24964;-79
2023/08/16 00:27:51;;;;;;;7.90;7.10;;;;;;;19.73;97.47;98165.27;106404;1262;173239;-77
2023/08/16 00:30:19;;;;;;;11.50;6.80;;;;;;;19.63;97.06;98167.98;106395;1280;25506;-78
2023/08/16 00:32:48;;;;;;;7.00;6.20;;;;;;;19.55;97.00;98170.80;106441;1279;23024;-77
2023/08/16 00:35:16;;;;;;;9.40;7.20;;;;;;;19.52;96.87;98173.07;106359;1279;22534;-78
2023/08/16 00:37:44;;;;;;;8.30;6.60;;;;;;;19.50;97.33;98175.99;106643;1269;24240;-77
2023/08/16 00:40:12;;;;;;;11.20;7.40;;;;;;;19.49;97.74;98171.98;106686;1279;22564;-78
2023/08/16 00:42:40;;;;;;;8.80;7.30;;;;;;;19.46;97.30;98173.63;106681;1279;22535;-78
2023/08/16 00:45:10;;;;;;;10.80;7.40;;;;;;;19.44;97.19;98179.82;106672;1279;22538;-78
2023/08/16 00:47:38;;;;;;;10.50;7.40;;;;;;;19.44;97.00;98179.73;106669;1279;22667;-78
2023/08/16 00:50:07;;;;;;;11.30;7.80;;;;;;;19.40;97.30;98179.92;106699;1279;25416;-78
2023/08/16 00:52:37;;;;;;;8.90;6.70;;;;;;;19.33;96.97;98183.88;106690;1280;22654;-78
2023/08/16 00:55:07;;;;;;;9.20;7.10;;;;;;;19.32;97.14;98187.36;106676;1279;22662;-78
2023/08/16 00:57:36;;;;;;;8.30;6.80;;;;;;;19.30;97.05;98186.77;106727;1279;24258;-78
2023/08/16 01:00:05;;;;;;;10.10;7.10;;;;;;;19.29;97.23;98185.04;106622;1279;24196;-78
2023/08/16 01:02:33;;;;;;;10.60;7.30;;;;;;;19.31;97.10;98183.75;106748;1279;25036;-78
2023/08/16 01:05:02;;;;;;;9.70;7.80;;;;;;;19.27;97.30;98182.17;106596;1279;22537;-78
2023/08/16 01:07:30;;;;;;;8.40;7.30;;;;;;;19.15;97.31;98180.60;106675;1279;22647;-78
2023/08/16 01:09:58;;;;;;;8.60;7.50;;;;;;;19.09;97.32;98181.58;106668;1279;22565;-78
2023/08/16 01:12:37;;;;;;;11.30;7.50;;;;;;;19.09;97.42;98181.73;106749;1279;22564;-78
2023/08/16 01:15:26;;;;;;;10.90;6.90;;;;;;;19.10;97.43;98182.64;106699;1279;22857;-79
2023/08/16 01:17:56;;;;;;;9.90;7.30;;;;;;;19.03;97.13;98184.78;106698;1279;22554;-79
2023/08/16 01:20:28;;;;;;;12.30;7.30;;;;;;;19.02;97.45;98188.80;106695;1279;22534;-78
2023/08/16 01:23:04;;;;;;;11.80;7.20;;;;;;;19.03;97.69;98186.28;106729;1279;22612;-77
2023/08/16 01:26:22;;;;;;;9.50;7.20;;;;;;;18.99;97.78;98184.91;106730;1279;22553;-77
2023/08/16 01:28:52;;;;;;;8.90;8.00;;;;;;;18.79;99.34;98177.70;106714;1279;22791;-77
2023/08/16 01:31:20;;;;;;;10.20;7.50;;;;;;;18.61;99.86;98177.06;106775;1279;22534;-77
2023/08/16 01:33:48;;;;;;;10.30;8.60;;;;;;;18.48;99.67;98175.83;106685;1279;22543;-79
2023/08/16 01:36:16;;;;;;;11.90;8.80;;;;;;;18.39;100.00;98175.25;106705;1279;23002;-79
2023/08/16 01:38:45;;;;;;;12.30;9.00;;;;;;;18.33;100.00;98179.80;106676;1279;22789;-78
2023/08/16 01:41:21;;;;;;;11.90;8.10;;;;;;;18.26;100.00;98181.95;106716;1279;25407;-79
2023/08/16 01:43:50;;;;;;;11.20;8.70;;;;;;;18.19;100.00;98184.46;106378;1279;24453;-79
2023/08/16 01:46:20;;;;;;;11.30;9.30;;;;;;;18.12;100.00;98182.14;106795;1279;25478;-77
2023/08/16 01:48:50;;;;;;;12.40;9.10;;;;;;;18.12;100.00;98176.66;106460;1279;22583;-76
2023/08/16 01:51:18;;;;;;;15.10;10.10;;;;;;;18.06;100.00;98176.42;106733;1279;22625;-77
2023/08/16 01:53:53;;;;;;;12.90;10.30;;;;;;;17.99;100.00;98173.98;106688;1279;23156;-77
2023/08/16 01:56:22;;;;;;;13.70;9.50;;;;;;;17.91;100.00;98176.15;106779;1279;25400;-77
2023/08/16 01:58:50;;;;;;;10.90;8.70;;;;;;;17.92;100.00;98176.17;106666;1279;24428;-78
2023/08/16 02:01:18;;;;;;;11.60;8.90;;;;;;;17.90;100.00;98173.56;106594;1279;25661;-78
2023/08/16 02:03:47;;;;;;;12.30;8.30;;;;;;;17.89;100.00;98167.70;106678;1279;22640;-78
2023/08/16 02:06:15;;;;;;;12.20;7.90;;;;;;;17.87;100.00;98167.23;106682;1279;22546;-78
2023/08/16 02:08:43;;;;;;;9.00;6.90;;;;;;;17.84;100.00;98163.01;106713;1279;22535;-78
2023/08/16 02:11:12;;;;;;;11.10;8.10;;;;;;;17.83;100.00;98166.01;106577;1279;22528;-78
2023/08/16 02:13:40;;;;;;;11.20;10.00;;;;;;;17.86;100.00;98173.19;106725;1279;22556;-78
2023/08/16 02:16:08;;;;;;;13.90;9.70;;;;;;;17.84;100.00;98175.45;106595;1279;22562;-78
2023/08/16 02:18:36;;;;;;;14.00;9.00;;;;;;;17.82;100.00;98170.88;106650;1279;22567;-77
2023/08/16 02:21:04;;;;;;;9.90;9.00;;;;;;;17.82;100.00;98171.17;106612;1278;24215;-77
2023/08/16 02:23:32;;;;;;;11.80;8.80;;;;;;;17.79;100.00;98171.69;106659;1279;22589;-77
2023/08/16 02:26:00;;;;;;;12.60;9.10;;;;;;;17.76;100.00;98176.35;106535;1279;25320;-78
2023/08/16 02:28:28;;;;;;;11.70;8.70;;;;;;;17.76;100.00;98176.50;106646;1279;22547;-78
2023/08/16 02:31:06;;;;;;;13.70;8.60;;;;;;;17.76;100.00;98177.41;106672;1279;25325;-78
2023/08/16 02:33:34;;;;;;;12.40;8.60;;;;;;;17.75;100.00;98177.01;106688;1279;22990;-78
2023/08/16 02:36:02;;;;;;;11.20;8.30;;;;;;;17.76;100.00;98175.70;106703;1279;22527;-79
2023/08/16 02:38:31;;;;;;;11.50;7.90;;;;;;;17.78;100.00;98171.66;106664;1279;22517;-78
2023/08/16 02:41:01;;;;;;;11.50;9.00;;;;;;;17.77;100.00;98179.78;106804;1279;24381;-78
2023/08/16 02:43:29;;;;;;;12.60;7.70;;;;;;;17.76;100.00;98180.06;106717;1279;22519;-78
2023/08/16 02:45:57;;;;;;;9.90;7.70;;;;;;;17.76;100.00;98181.63;106722;1279;25362;-78
2023/08/16 02:48:25;;;;;;;9.70;7.70;;;;;;;17.77;100.00;98182.54;106758;1279;24417;-78
2023/08/16 02:50:54;;;;;;;13.40;8.30;;;;;;;17.78;100.00;98182.81;106732;1279;22536;-78
2023/08/16 02:53:22;;;;;;;10.10;8.80;;;;;;;17.80;100.00;98181.17;106664;1279;22654;-78
2023/08/16 02:55:50;;;;;;;10.10;7.80;;;;;;;17.83;100.00;98181.13;106672;1279;25294;-77
2023/08/16 02:58:18;;;;;;;9.60;8.00;;;;;;;17.87;100.00;98184.61;106735;1279;22645;-78
2023/08/16 03:00:50;;;;;;;10.90;8.30;;;;;;;17.91;100.00;98185.13;106694;1279;22721;-78
2023/08/16 03:03:19;;;;;;;9.50;8.20;;;;;;;17.94;100.00;98192.83;106773;1280;23191;-78
2023/08/16 03:05:47;;;;;;;10.70;8.00;;;;;;;17.96;100.00;98196.17;106697;1279;24213;-78
2023/08/16 03:08:15;;;;;;;12.20;7.70;;;;;;;18.02;100.00;98199.09;106712;1279;25852;-78
2023/08/16 03:10:43;;;;;;;10.80;7.80;;;;;;;18.06;100.00;98198.14;106707;1280;23418;-79
2023/08/16 03:13:11;;;;;;;8.80;7.70;;;;;;;18.06;100.00;98192.77;106641;1279;23051;-79
2023/08/16 03:15:39;;;;;;;10.50;7.90;;;;;;;18.03;100.00;98187.99;106605;1278;22787;-79
2023/08/16 03:18:07;;;;;;;10.90;8.50;;;;;;;18.01;100.00;98188.86;106708;1279;24067;-79
2023/08/16 03:20:35;;;;;;;9.10;8.10;;;;;;;18.00;100.00;98193.50;106557;1280;22528;-79
2023/08/16 03:23:03;;;;;;;10.40;7.50;;;;;;;17.98;100.00;98197.02;106741;1279;22521;-79
2023/08/16 03:25:31;;;;;;;12.90;7.90;;;;;;;17.94;100.00;98193.63;106727;1280;22897;-79
2023/08/16 03:27:59;;;;;;;9.20;7.70;;;;;;;17.92;100.00;98194.05;106570;1279;22630;-79
2023/08/16 03:30:28;;;;;;;10.20;7.50;;;;;;;17.92;100.00;98191.09;106703;1279;24391;-78
2023/08/16 03:32:56;;;;;;;9.60;8.00;;;;;;;17.92;100.00;98183.98;106600;1279;23119;-78
2023/08/16 03:35:24;;;;;;;11.50;8.00;;;;;;;17.89;100.00;98182.88;106628;1256;22612;-78
2023/08/16 03:37:52;;;;;;;9.20;8.20;;;;;;;17.87;100.00;98187.11;106719;1279;24381;-78
2023/08/16 03:40:20;;;;;;;8.70;7.80;;;;;;;17.86;100.00;98185.27;106715;1280;24255;-78
2023/08/16 03:42:48;;;;;;;24.70;8.50;;;;;;;17.85;100.00;98184.70;106645;1279;22664;-78
2023/08/16 03:45:16;;;;;;;12.00;8.10;;;;;;;17.84;100.00;98191.27;106733;1279;22580;-77
2023/08/16 03:47:44;;;;;;;11.90;8.10;;;;;;;17.83;100.00;98190.46;106588;1279;22668;-78
2023/08/16 03:50:12;;;;;;;9.60;8.30;;;;;;;17.85;100.00;98196.54;106671;1279;26742;-77
2023/08/16 03:52:40;;;;;;;13.10;8.80;;;;;;;17.87;100.00;98191.60;106655;1279;24385;-78
2023/08/16 03:55:08;;;;;;;12.40;8.50;;;;;;;17.88;100.00;98194.61;106573;1279;22723;-78
2023/08/16 03:57:36;;;;;;;14.80;8.40;;;;;;;17.91;100.00;98196.39;106660;1279;24267;-78
2023/08/16 04:00:08;;;;;;;10.30;8.70;;;;;;;17.95;100.00;98191.48;106654;1279;22648;-78
2023/08/16 04:02:40;;;;;;;9.70;8.20;;;;;;;18.01;100.00;98194.00;106649;1279;22524;-79
2023/08/16 04:05:11;;;;;;;10.70;8.70;;;;;;;18.06;100.00;98195.15;106664;1280;22723;-78
2023/08/16 04:07:40;;;;;;;11.50;8.50;;;;;;;18.10;100.00;98192.20;106711;1279;22530;-78
2023/08/16 04:10:08;;;;;;;9.70;8.60;;;;;;;18.15;100.00;98190.32;106688;1279;24381;-78
2023/08/16 04:12:36;;;;;;;10.00;8.60;;;;;;;18.21;100.00;98194.02;106858;1279;22637;-78
2023/08/16 04:15:05;;;;;;;12.40;9.10;;;;;;;18.29;100.00;98193.79;106771;1280;22749;-78
2023/08/16 04:17:33;;;;;;;12.40;8.90;;;;;;;18.36;100.00;98196.52;106542;1279;22550;-77
2023/08/16 04:20:01;;;;;;;10.60;8.30;;;;;;;18.44;100.00;98201.34;106530;1279;25528;-78
2023/08/16 04:22:29;;;;;;;13.50;9.20;;;;;;;18.53;100.00;98205.77;106690;1279;24210;-78
2023/08/16 04:25:01;;;;;;;16.20;9.00;;;;;;;18.64;100.00;98207.48;106711;1279;25325;-78
2023/08/16 04:27:29;;;;;;;11.20;9.60;;;;;;;18.74;100.00;98209.14;106621;1280;22679;-78
2023/08/16 04:29:57;;;;;;;11.70;9.40;;;;;;;18.86;100.00;98213.94;106751;1280;25313;-78
2023/08/16 04:32:25;;;;;;;8.70;7.70;;;;;;;18.98;100.00;98214.08;106620;1279;25481;-78
2023/08/16 04:34:53;;;;;;;11.30;9.30;;;;;;;19.12;100.00;98217.56;106708;1280;24345;-78
2023/08/16 04:37:21;;;;;;;13.70;9.00;;;;;;;19.23;100.00;98216.33;106578;1279;25479;-77
2023/08/16 04:39:49;;;;;;;12.90;9.70;;;;;;;19.33;100.00;98215.51;106369;1280;22700;-77
2023/08/16 04:42:18;;;;;;;14.50;9.90;;;;;;;19.42;100.00;98217.54;106496;1279;22594;-78
2023/08/16 04:44:48;;;;;;;12.90;9.20;;;;;;;19.51;100.00;98221.39;106780;1280;24389;-78
2023/08/16 04:47:16;;;;;;;11.10;9.60;;;;;;;19.64;100.00;98221.86;106643;1278;22750;-78
2023/08/16 04:49:45;;;;;;;11.80;9.20;;;;;;;19.73;100.00;98223.86;106529;1280;25393;-78
2023/08/16 04:52:13;;;;;;;11.50;9.20;;;;;;;19.81;100.00;98226.34;106550;1279;22643;-79
2023/08/16 04:54:41;;;;;;;14.20;10.30;;;;;;;19.91;100.00;98225.66;106641;1280;25413;-78
2023/08/16 04:57:09;;;;;;;11.30;9.90;;;;;;;20.04;100.00;98228.77;106528;1280;25333;-78
2023/08/16 04:59:38;;;;;;;11.40;10.10;;;;;;;20.15;100.00;98226.54;106600;1279;22645;-79
2023/08/16 05:02:08;;;;;;;11.80;9.50;;;;;;;20.27;100.00;98228.79;106571;1280;22530;-79
2023/08/16 05:04:36;;;;;;;16.30;10.30;;;;;;;20.44;100.00;98224.81;106633;1279;22673;-79
2023/08/16 05:07:04;;;;;;;19.40;8.90;;;;;;;20.62;100.00;98222.75;106678;1279;22634;-79
2023/08/16 05:09:32;;;;;;;17.40;9.30;;;;;;;20.76;100.00;98223.53;106689;1279;22587;-79
2023/08/16 05:12:00;;;;;;;16.40;8.90;;;;;;;20.91;100.00;98226.73;106529;1279;24409;-79
2023/08/16 05:14:28;;;;;;;13.00;9.50;;;;;;;21.06;100.00;98228.92;106529;1279;25445;-78
2023/08/16 05:16:56;;;;;;;10.70;9.40;;;;;;;21.22;100.00;98226.36;106594;1279;24183;-78
2023/08/16 05:19:25;;;;;;;13.50;9.70;;;;;;;21.40;100.00;98230.00;106662;1280;25616;-78
2023/08/16 05:21:53;;;;;;;11.00;9.50;;;;;;;21.58;100.00;98231.23;106556;1279;22575;-79
2023/08/16 05:24:21;;;;;;;10.50;8.80;;;;;;;21.78;100.00;98231.59;106809;1280;25777;-79
2023/08/16 05:26:49;;;;;;;13.20;9.80;;;;;;;21.93;100.00;98233.42;106819;1280;25513;-79
2023/08/16 05:29:17;;;;;;;17.10;10.30;;;;;;;22.08;100.00;98233.36;106626;1280;22527;-79
2023/08/16 05:31:45;;;;;;;13.20;10.00;;;;;;;22.24;100.00;98235.06;106692;1280;22636;-79
2023/08/16 05:34:15;;;;;;;14.30;10.60;;;;;;;22.37;100.00;98237.05;106698;1280;24330;-79
2023/08/16 05:36:47;;;;;;;16.60;10.50;;;;;;;22.47;100.00;98236.52;106722;1279;22860;-79
2023/08/16 05:39:16;;;;;;;15.20;10.80;;;;;;;22.57;100.00;98237.45;106735;1279;22569;-77
2023/08/16 05:41:44;;;;;;;11.60;9.90;;;;;;;22.71;100.00;98237.89;106646;1280;24254;-78
2023/08/16 05:44:11;;;;;;;12.90;11.50;;;;;;;22.85;100.00;98232.77;106465;1279;22545;-78
2023/08/16 05:46:40;;;;;;;15.00;10.40;;;;;;;22.99;100.00;98235.95;106387;1279;22608;-78
2023/08/16 05:49:08;;;;;;;16.50;11.10;;;;;;;23.12;100.00;98229.91;106416;1280;25385;-78
2023/08/16 05:51:36;;;;;;;15.50;11.30;;;;;;;23.22;100.00;98223.81;106470;1279;25517;-79
2023/08/16 05:54:04;;;;;;;19.30;10.90;;;;;;;23.31;100.00;98224.95;106593;1280;22535;-78
2023/08/16 05:56:32;;;;;;;12.90;10.30;;;;;;;23.38;100.00;98224.54;106526;1280;24383;-79
2023/08/16 05:59:00;;;;;;;14.30;11.00;;;;;;;23.44;100.00;98223.84;106399;1269;24388;-78
2023/08/16 06:01:28;;;;;;;12.70;10.80;;;;;;;23.53;100.00;98222.05;106687;1279;22606;-78
2023/08/16 06:03:56;;;;;;;16.90;11.00;;;;;;;23.63;99.85;98225.69;106588;1279;24234;-78
2023/08/16 06:06:24;;;;;;;12.90;10.80;;;;;;;23.73;99.94;98225.73;106655;1280;22572;-78
2023/08/16 06:08:52;;;;;;;16.90;11.30;;;;;;;23.81;99.54;98217.72;106651;1279;22541;-78
2023/08/16 06:11:20;;;;;;;14.60;11.30;;;;;;;23.89;98.60;98222.42;106650;1279;24212;-79
2023/08/16 06:13:48;;;;;;;18.70;10.80;;;;;;;23.98;98.46;98225.65;106459;1279;22574;-79
2023/08/16 06:16:17;;;;;;;14.80;10.70;;;;;;;24.10;98.04;98227.89;106456;1279;22668;-79
2023/08/16 06:18:45;;;;;;;12.10;10.40;;;;;;;24.21;97.53;98228.30;106721;1279;25387;-78
2023/08/16 06:21:13;;;;;;;14.50;10.30;;;;;;;24.32;96.10;98227.83;106633;1280;25264;-79
2023/08/16 06:23:42;;;;;;;14.00;9.50;;;;;;;24.42;96.09;98226.65;106333;1279;25409;-78
2023/08/16 06:26:10;;;;;;;16.30;9.10;;;;;;;24.52;94.92;98224.45;106314;1279;22665;-79
2023/08/16 06:28:38;;;;;;;12.20;8.80;;;;;;;24.60;92.89;98219.86;106661;1279;22652;-79
2023/08/16 06:31:07;;;;;;;17.40;11.20;;;;;;;24.65;92.65;98214.94;106468;1279;25285;-78
2023/08/16 06:33:36;;;;;;;16.20;14.30;;;;;;;24.71;89.96;98216.39;106672;1280;24277;-79
2023/08/16 06:36:04;;;;;;;27.80;17.90;;;;;;;24.77;88.46;98218.47;106649;1279;24259;-79
2023/08/16 06:38:32;;;;;;;17.30;11.70;;;;;;;24.86;89.06;98219.92;106658;1279;22607;-79
2023/08/16 06:41:00;;;;;;;13.90;10.90;;;;;;;24.96;89.47;98221.16;106717;1279;22535;-78
2023/08/16 06:43:28;;;;;;;16.00;8.80;;;;;;;25.06;87.84;98221.05;106729;1279;25509;-78
2023/08/16 06:45:57;;;;;;;13.30;9.40;;;;;;;25.14;86.12;98223.94;106706;1279;22592;-78
2023/08/16 06:48:25;;;;;;;20.20;9.60;;;;;;;25.23;87.30;98225.65;106696;1279;25315;-79
2023/08/16 06:50:54;;;;;;;14.00;9.80;;;;;;;25.32;85.29;98224.33;106664;1279;25624;-79
2023/08/16 06:53:23;;;;;;;14.60;9.40;;;;;;;25.38;83.07;98222.77;106741;1280;25347;-79
2023/08/16 06:55:54;;;;;;;13.60;10.20;;;;;;;25.37;81.79;98219.63;106718;1280;22747;-79
2023/08/16 06:58:22;;;;;;;15.60;9.40;;;;;;;25.34;81.50;98213.85;106730;1279;22531;-79
2023/08/16 07:00:50;;;;;;;13.40;10.10;;;;;;;25.35;77.33;98222.37;106701;1279;23100;-79
2023/08/16 07:03:18;;;;;;;14.30;9.70;;;;;;;25.40;79.76;98217.11;106746;1279;22653;-79
2023/08/16 07:05:46;;;;;;;13.90;9.80;;;;;;;25.48;78.31;98218.15;106792;1279;22577;-79
2023/08/16 07:08:14;;;;;;;13.50;9.20;;;;;;;25.60;79.61;98216.84;106698;1279;22614;-79
2023/08/16 07:10:43;;;;;;;14.30;9.90;;;;;;;25.64;78.44;98219.45;106692;1279;22545;-79
2023/08/16 07:13:12;;;;;;;23.70;11.10;;;;;;;25.66;77.40;98220.88;106726;1280;22748;-78
2023/08/16 07:15:41;;;;;;;14.10;10.30;;;;;;;25.71;77.81;98224.98;106459;1280;23028;-81
2023/08/16 07:18:09;;;;;;;13.80;10.40;;;;;;;25.80;78.73;98222.73;106663;1280;22551;-79
2023/08/16 07:20:37;;;;;;;14.70;10.40;;;;;;;25.92;78.37;98222.67;106717;1279;25416;-79
2023/08/16 07:23:06;;;;;;;16.30;10.60;;;;;;;26.06;78.07;98225.77;106468;1280;22530;-79
2023/08/16 07:25:34;;;;;;;29.70;12.40;;;;;;;26.15;79.08;98233.41;106679;1280;25502;-78
2023/08/16 07:28:04;;;;;;;14.00;10.60;;;;;;;26.25;76.78;98235.48;106438;1279;22598;-78
2023/08/16 07:30:38;;;;;;;15.10;10.80;;;;;;;26.28;76.93;98239.73;106437;1280;24414;-79
2023/08/16 07:33:06;;;;;;;13.80;9.30;;;;;;;26.39;78.00;98239.50;106749;1279;24262;-78
2023/08/16 07:35:34;;;;;;;12.90;8.80;;;;;;;26.50;74.90;98243.60;106541;1280;22539;-78
2023/08/16 07:38:03;;;;;;;11.10;8.70;;;;;;;26.60;74.80;98245.98;106704;1280;27647;-79
2023/08/16 07:40:31;;;;;;;10.50;7.60;;;;;;;26.67;72.78;98249.05;106413;1258;24260;-79
2023/08/16 07:42:59;;;;;;;11.40;7.20;;;;;;;26.69;71.07;98250.55;106466;1280;22531;-78
2023/08/16 07:45:27;;;;;;;9.10;7.50;;;;;;;26.77;71.71;98251.46;106796;1280;23417;-80
2023/08/16 07:47:56;;;;;;;14.80;8.40;;;;;;;26.87;70.34;98256.11;106446;1280;24257;-79
2023/08/16 07:50:24;;;;;;;22.10;9.50;;;;;;;26.97;71.10;98258.84;106700;1280;22554;-78
2023/08/16 07:52:52;;;;;;;11.50;8.10;;;;;;;27.10;71.99;98257.71;106809;1279;24072;-80
2023/08/16 07:55:22;;;;;;;10.60;8.60;;;;;;;27.22;70.47;98260.45;106655;1279;24363;-79
2023/08/16 07:57:50;;;;;;;13.70;8.40;;;;;;;27.32;71.14;98258.20;106489;1280;22685;-78
2023/08/16 08:00:18;;;;;;;10.50;7.80;;;;;;;27.44;71.01;98253.64;106695;1280;24356;-80
2023/08/16 08:02:46;;;;;;;9.30;7.50;;;;;;;27.54;70.93;98253.75;106737;1280;22653;-78
2023/08/16 08:05:27;;;;;;;9.80;7.30;;;;;;;27.63;68.21;98260.73;106505;1280;22518;-80
2023/08/16 08:07:55;;;;;;;11.40;7.30;;;;;;;27.67;69.19;98261.04;106818;1279;25384;-80
2023/08/16 08:10:23;;;;;;;11.40;8.30;;;;;;;27.74;65.77;98262.42;106716;1280;25754;-79
2023/08/16 08:12:51;;;;;;;11.20;7.30;;;;;;;27.72;66.01;98265.03;106644;1279;24058;-79
2023/08/16 08:15:19;;;;;;;11.70;7.20;;;;;;;27.78;66.47;98261.61;106996;1279;22538;-79
2023/08/16 08:17:47;;;;;;;11.80;7.50;;;;;;;27.87;64.91;98262.77;106703;1280;25402;-79
2023/08/16 08:20:16;;;;;;;9.20;6.40;;;;;;;27.89;65.10;98259.66;106707;1280;22526;-79
2023/08/16 08:22:44;;;;;;;10.00;6.80;;;;;;;27.95;64.78;98252.66;106705;1280;24252;-79
2023/08/16 08:25:12;;;;;;;11.70;6.60;;;;;;;28.04;65.61;98256.24;106721;1279;22601;-79
2023/08/16 08:27:41;;;;;;;11.20;7.30;;;;;;;28.21;66.27;98258.48;106736;1279;23054;-79
2023/08/16 08:30:09;;;;;;;11.10;6.70;;;;;;;28.32;64.13;98266.08;106740;1280;24232;-79
2023/08/16 08:32:37;;;;;;;10.30;6.60;;;;;;;28.39;63.90;98266.11;106722;1280;22613;-79
2023/08/16 08:35:06;;;;;;;11.50;6.80;;;;;;;28.51;63.20;98264.37;106719;1279;22741;-79
2023/08/16 08:37:34;;;;;;;9.40;7.10;;;;;;;28.54;62.56;98266.55;106711;1280;24387;-79
2023/08/16 08:40:04;;;;;;;9.70;6.60;;;;;;;28.55;62.75;98261.64;106698;1279;22532;-79
2023/08/16 08:42:33;;;;;;;8.10;6.60;;;;;;;28.63;62.58;98257.67;106694;1280;22639;-79
2023/08/16 08:45:03;;;;;;;14.60;6.60;;;;;;;28.76;63.24;98256.44;106729;1280;22595;-79
2023/08/16 08:47:32;;;;;;;10.50;6.70;;;;;;;28.86;62.14;98256.10;106844;1279;23116;-79
2023/08/16 08:50:02;;;;;;;8.70;5.90;;;;;;;28.97;61.43;98256.61;106677;1280;22532;-78
2023/08/16 08:52:31;;;;;;;8.10;5.60;;;;;;;29.09;61.72;98260.56;106738;1280;25508;-79
2023/08/16 08:54:59;;;;;;;7.30;5.90;;;;;;;29.15;59.05;98261.75;106684;1279;24534;-78
2023/08/16 08:57:29;;;;;;;10.80;5.80;;;;;;;29.18;59.86;98267.90;106641;1280;24210;-79
2023/08/16 09:00:01;;;;;;;7.10;5.60;;;;;;;29.30;60.31;98270.61;106699;1279;22600;-79
2023/08/16 09:02:30;;;;;;;12.50;5.50;;;;;;;29.47;60.14;98277.15;106727;1258;22543;-80
2023/08/16 09:05:03;;;;;;;10.30;6.10;;;;;;;29.53;58.53;98280.00;106703;1279;25623;-79
2023/08/16 09:07:32;;;;;;;8.30;6.00;;;;;;;29.57;59.26;98282.02;106708;1279;25375;-80
2023/08/16 09:10:01;;;;;;;11.60;5.80;;;;;;;29.68;58.86;98280.00;106733;1280;25387;-79
2023/08/16 09:12:29;;;;;;;9.40;5.90;;;;;;;29.75;58.06;98277.36;106651;1280;23001;-79
2023/08/16 09:14:57;;;;;;;9.00;6.50;;;;;;;29.87;59.06;98273.94;106726;1280;22802;-79
2023/08/16 09:17:25;;;;;;;8.50;6.30;;;;;;;30.00;58.63;98273.98;106669;1279;26742;-79
2023/08/16 09:19:53;;;;;;;9.20;5.70;;;;;;;30.11;57.90;98272.95;106707;1279;24250;-79
2023/08/16 09:22:21;;;;;;;8.00;5.90;;;;;;;30.16;54.85;98273.58;106651;1256;22579;-79
2023/08/16 09:24:54;;;;;;;9.30;5.70;;;;;;;30.12;53.44;98271.02;106708;1279;22658;-78
2023/08/16 09:27:25;;;;;;;6.50;5.40;;;;;;;30.05;52.96;98267.47;106699;1279;22518;-79
2023/08/16 09:29:54;;;;;;;7.10;5.50;;;;;;;30.07;54.12;98263.48;106665;1279;22580;-79
2023/08/16 09:32:29;;;;;;;9.70;5.30;;;;;;;30.14;51.79;98263.92;106659;1279;22650;-79
2023/08/16 09:34:59;;;;;;;6.90;5.30;;;;;;;30.22;53.38;98264.30;106667;1279;22647;-79
2023/08/16 09:37:31;;;;;;;11.10;5.40;;;;;;;30.35;54.14;98261.71;106674;1256;24180;-79
2023/08/16 09:39:59;;;;;;;11.70;6.00;;;;;;;30.50;52.47;98258.42;106627;1280;22643;-78
2023/08/16 09:42:32;;;;;;;7.30;5.90;;;;;;;30.64;51.96;98251.42;106689;1279;22558;-78
2023/08/16 09:45:01;;;;;;;10.50;5.70;;;;;;;30.79;52.57;98246.33;106682;1279;22489;-78
2023/08/16 09:47:30;;;;;;;7.40;5.10;;;;;;;30.88;50.02;98237.83;106707;1280;22583;-78
2023/08/16 09:50:06;;;;;;;9.60;5.50;;;;;;;30.87;48.11;98227.84;106734;1279;24969;-78
2023/08/16 09:52:36;;;;;;;8.30;5.60;;;;;;;30.85;48.12;98220.25;106639;1279;22492;-78
2023/08/16 09:55:07;;;;;;;10.80;5.30;;;;;;;30.82;47.91;98217.27;106688;1279;24198;-81
2023/08/16 09:57:36;;;;;;;9.50;5.40;;;;;;;30.83;49.33;98218.20;106727;1280;22657;-78
2023/08/16 10:00:07;;;;;;;7.80;5.60;;;;;;;30.99;49.69;98224.52;106676;1279;22566;-77
2023/08/16 10:02:42;;;;;;;6.20;4.50;;;;;;;31.19;49.74;98225.70;106682;1279;22528;-78
2023/08/16 10:05:15;;;;;;;6.90;4.60;;;;;;;31.40;49.25;98235.05;106687;1280;22588;-79
2023/08/16 10:07:48;;;;;;;10.90;5.60;;;;;;;31.51;46.98;98241.26;106655;1280;24238;-78
2023/08/16 10:10:16;;;;;;;10.30;5.50;;;;;;;31.44;47.23;98240.39;106751;1279;22744;-79
2023/08/16 10:12:47;;;;;;;7.50;5.50;;;;;;;31.49;47.73;98238.60;106727;1280;22663;-79
2023/08/16 10:15:16;;;;;;;9.60;6.00;;;;;;;31.56;47.61;98236.63;106698;1279;25319;-79
2023/08/16 10:17:44;;;;;;;8.70;5.70;;;;;;;31.60;47.82;98236.30;106696;1280;24237;-79
2023/08/16 10:20:24;;;;;;;7.60;5.30;;;;;;;31.59;47.14;98234.73;106686;1280;22551;-79
2023/08/16 10:23:03;;;;;;;12.60;5.80;;;;;;;31.66;46.95;98228.05;106782;1279;23521;-79
2023/08/16 10:25:36;;;;;;;11.20;5.70;;;;;;;31.69;45.63;98230.61;106689;1279;22528;-79
2023/08/16 10:28:07;;;;;;;;;;;;;;;31.77;47.14;98230.59;106764;1279;22466;-78
2023/08/16 10:30:37;;;;;;;9.40;5.50;;;;;;;31.91;45.06;98234.27;106693;1279;22802;-78
2023/08/16 10:33:17;;;;;;;7.90;5.50;;;;;;;31.89;44.64;98230.78;106702;1279;22537;-79
2023/08/16 10:35:48;;;;;;;14.00;5.60;;;;;;;31.84;43.71;98227.71;106696;1280;25440;-78
2023/08/16 10:38:20;;;;;;;9.90;5.60;;;;;;;31.88;44.85;98229.30;106799;1280;22532;-78
2023/08/16 10:40:57;;;;;;;9.70;5.70;;;;;;;32.09;45.68;98229.61;106683;1279;22781;-78
2023/08/16 10:43:49;;;;;;;12.50;6.70;;;;;;;32.40;45.97;98226.30;106624;1279;22527;-78
2023/08/16 10:46:33;;;;;;;13.10;7.40;;;;;;;32.60;46.02;98229.95;106802;1280;22713;-78
2023/08/16 10:49:06;;;;;;;8.20;5.60;;;;;;;32.87;46.05;98223.64;106691;1279;22530;-78
2023/08/16 10:51:51;;;;;;;11.60;5.30;;;;;;;33.09;45.51;98222.83;106773;1279;22727;-78
2023/08/16 10:54:34;;;;;;;11.20;5.90;;;;;;;33.18;44.85;98216.58;106724;1280;22638;-78
2023/08/16 10:57:04;;;;;;;10.80;6.80;;;;;;;33.27;44.93;98218.31;106688;1279;25296;-78
2023/08/16 10:59:39;;;;;;;11.40;6.20;;;;;;;33.42;45.52;98223.30;106709;1280;24290;-80
2023/08/16 11:02:10;;;;;;;7.80;5.30;;;;;;;33.58;44.86;98221.89;106802;1279;22751;-80
2023/08/16 11:04:39;;;;;;;22.10;7.50;;;;;;;33.56;44.86;98222.19;107028;1280;22661;-76
2023/08/16 11:07:09;;;;;;;12.30;6.20;;;;;;;33.46;44.47;98221.59;106759;1279;24070;-77
2023/08/16 11:09:39;;;;;;;10.50;5.40;;;;;;;33.18;43.81;98221.11;106642;1279;22616;-78
2023/08/16 11:12:08;;;;;;;11.30;5.50;;;;;;;32.81;43.32;98218.23;106613;1279;22809;-78
2023/08/16 11:14:36;;;;;;;10.10;6.20;;;;;;;32.53;43.25;98223.74;106738;1279;24447;-78
2023/08/16 11:17:05;;;;;;;12.10;7.40;;;;;;;32.32;44.28;98226.16;106760;1279;22751;-80
2023/08/16 11:19:33;;;;;;;9.60;5.60;;;;;;;32.27;44.76;98226.63;106697;1279;25418;-78
2023/08/16 11:22:02;;;;;;;11.60;5.30;;;;;;;32.30;44.71;98219.37;106724;1279;22635;-79
2023/08/16 11:24:31;;;;;;;9.80;5.60;;;;;;;32.40;43.97;98221.26;106656;1279;22530;-78